createdAt,value
2018-12-26T00:00:58.685Z,807.00
2018-12-26T00:01:59.192Z,806.00
2018-12-26T00:03:00.584Z,806.00
2018-12-26T00:04:01.051Z,807.00
2018-12-26T00:05:01.424Z,807.00
2018-12-26T00:06:01.981Z,807.00
2018-12-26T00:07:02.369Z,807.00
2018-12-26T00:08:02.681Z,806.00
2018-12-26T00:09:03.226Z,806.00
2018-12-26T00:10:02.521Z,806.00
2018-12-26T00:11:03.837Z,805.00
2018-12-26T00:12:04.190Z,807.00
2018-12-26T00:13:04.644Z,807.00
2018-12-26T00:14:05.151Z,807.00
2018-12-26T00:15:05.535Z,807.00
2018-12-26T00:16:05.991Z,807.00
2018-12-26T00:17:06.325Z,807.00
2018-12-26T00:18:06.612Z,807.00
2018-12-26T00:19:06.922Z,806.00
2018-12-26T00:20:07.439Z,806.00
2018-12-26T00:21:06.651Z,806.00
2018-12-26T00:22:08.393Z,806.00
2018-12-26T00:23:08.702Z,807.00
2018-12-26T00:24:09.058Z,806.00
2018-12-26T00:25:08.444Z,807.00
2018-12-26T00:26:08.659Z,808.00
2018-12-26T00:27:10.061Z,808.00
2018-12-26T00:28:10.424Z,811.00
2018-12-26T00:29:10.767Z,810.00
2018-12-26T00:30:11.071Z,812.00
2018-12-26T00:31:11.437Z,812.00
2018-12-26T00:32:11.762Z,812.00
2018-12-26T00:33:12.112Z,812.00
2018-12-26T00:34:12.514Z,812.00
2018-12-26T00:35:12.993Z,812.00
2018-12-26T00:36:13.357Z,814.00
2018-12-26T00:37:13.719Z,814.00
2018-12-26T00:38:14.382Z,814.00
2018-12-26T00:39:14.809Z,814.00
2018-12-26T00:40:15.425Z,812.00
2018-12-26T00:41:15.729Z,811.00
2018-12-26T00:42:16.199Z,811.00
2018-12-26T00:43:16.531Z,810.00
2018-12-26T00:44:16.842Z,810.00
2018-12-26T00:45:17.153Z,810.00
2018-12-26T00:46:17.489Z,809.00
2018-12-26T00:47:17.813Z,808.00
2018-12-26T00:47:26.248Z,810.00
2018-12-26T00:48:27.556Z,808.00
2018-12-26T00:49:27.914Z,808.00
2018-12-26T00:50:28.267Z,810.00
2018-12-26T00:51:28.631Z,810.00
2018-12-26T00:52:28.104Z,808.00
2018-12-26T00:53:29.505Z,807.00
2018-12-26T00:54:30.080Z,807.00
2018-12-26T00:55:30.447Z,807.00
2018-12-26T00:56:30.921Z,806.00
2018-12-26T00:57:31.692Z,807.00
2018-12-26T00:58:32.061Z,807.00
2018-12-26T00:59:32.622Z,806.00
2018-12-26T01:00:32.994Z,807.00
2018-12-26T01:01:32.296Z,808.00
2018-12-26T01:02:33.816Z,807.00
2018-12-26T01:03:34.165Z,807.00
2018-12-26T01:04:34.451Z,806.00
2018-12-26T01:05:34.754Z,807.00
2018-12-26T01:06:35.081Z,807.00
2018-12-26T01:07:35.795Z,807.00
2018-12-26T01:08:36.148Z,809.00
2018-12-26T01:09:36.655Z,810.00
2018-12-26T01:10:36.983Z,808.00
2018-12-26T01:11:37.834Z,807.00
2018-12-26T01:12:38.414Z,807.00
2018-12-26T01:13:39.118Z,807.00
2018-12-26T01:14:39.426Z,807.00
2018-12-26T01:15:39.720Z,807.00
2018-12-26T01:16:40.092Z,807.00
2018-12-26T01:17:40.380Z,808.00
2018-12-26T01:18:40.722Z,809.00
2018-12-26T01:19:41.343Z,810.00
2018-12-26T01:20:41.809Z,809.00
2018-12-26T01:21:42.098Z,811.00
2018-12-26T01:22:42.404Z,810.00
2018-12-26T01:23:42.781Z,808.00
2018-12-26T01:24:43.258Z,810.00
2018-12-26T01:25:43.582Z,808.00
2018-12-26T01:26:43.912Z,808.00
2018-12-26T01:27:44.284Z,808.00
2018-12-26T01:28:44.631Z,808.00
2018-12-26T01:29:45.009Z,808.00
2018-12-26T01:30:45.407Z,810.00
2018-12-26T01:31:45.695Z,808.00
2018-12-26T01:32:46.013Z,807.00
2018-12-26T01:32:54.063Z,807.00
2018-12-26T01:33:55.491Z,807.00
2018-12-26T01:34:55.852Z,808.00
2018-12-26T01:35:56.276Z,809.00
2018-12-26T01:36:56.596Z,811.00
2018-12-26T01:37:56.979Z,812.00
2018-12-26T01:38:57.336Z,811.00
2018-12-26T01:39:57.745Z,811.00
2018-12-26T01:40:58.070Z,811.00
2018-12-26T01:41:58.409Z,810.00
2018-12-26T01:42:58.673Z,810.00
2018-12-26T01:43:59.137Z,812.00
2018-12-26T01:44:59.480Z,811.00
2018-12-26T01:45:59.819Z,811.00
2018-12-26T01:47:00.138Z,810.00
2018-12-26T01:48:00.769Z,811.00
2018-12-26T01:49:01.121Z,810.00
2018-12-26T01:50:01.491Z,811.00
2018-12-26T01:51:01.914Z,812.00
2018-12-26T01:52:02.210Z,812.00
2018-12-26T01:53:02.513Z,813.00
2018-12-26T01:54:02.860Z,812.00
2018-12-26T01:55:03.208Z,812.00
2018-12-26T01:56:03.516Z,811.00
2018-12-26T01:57:04.133Z,810.00
2018-12-26T01:58:04.514Z,808.00
2018-12-26T01:59:06.936Z,808.00
2018-12-26T02:00:04.304Z,808.00
2018-12-26T02:01:05.662Z,808.00
2018-12-26T02:02:05.923Z,810.00
2018-12-26T02:03:06.368Z,808.00
2018-12-26T02:04:07.930Z,808.00
2018-12-26T02:05:07.367Z,808.00
2018-12-26T02:06:07.856Z,808.00
2018-12-26T02:07:08.170Z,811.00
2018-12-26T02:08:08.709Z,811.00
2018-12-26T02:09:09.058Z,811.00
2018-12-26T02:10:09.317Z,810.00
2018-12-26T02:11:09.637Z,813.00
2018-12-26T02:12:09.939Z,812.00
2018-12-26T02:13:10.394Z,811.00
2018-12-26T02:14:10.792Z,810.00
2018-12-26T02:15:11.310Z,811.00
2018-12-26T02:16:11.620Z,812.00
2018-12-26T02:17:12.324Z,811.00
2018-12-26T02:18:12.753Z,813.00
2018-12-26T02:18:21.849Z,813.00
2018-12-26T02:19:22.393Z,812.00
2018-12-26T02:20:22.822Z,812.00
2018-12-26T02:21:23.353Z,811.00
2018-12-26T02:22:23.709Z,810.00
2018-12-26T02:23:24.099Z,810.00
2018-12-26T02:24:24.675Z,810.00
2018-12-26T02:25:24.916Z,809.00
2018-12-26T02:26:25.463Z,808.00
2018-12-26T02:27:25.816Z,808.00
2018-12-26T02:28:26.135Z,808.00
2018-12-26T02:29:26.582Z,808.00
2018-12-26T02:30:26.863Z,807.00
2018-12-26T02:31:27.245Z,807.00
2018-12-26T02:32:30.311Z,808.00
2018-12-26T02:33:27.362Z,807.00
2018-12-26T02:34:28.844Z,807.00
2018-12-26T02:35:29.197Z,807.00
2018-12-26T02:36:29.685Z,806.00
2018-12-26T02:37:30.294Z,806.00
2018-12-26T02:38:30.606Z,807.00
2018-12-26T02:39:30.954Z,806.00
2018-12-26T02:40:31.242Z,806.00
2018-12-26T02:41:31.548Z,806.00
2018-12-26T02:42:31.976Z,807.00
2018-12-26T02:43:32.491Z,806.00
2018-12-26T02:44:32.759Z,806.00
2018-12-26T02:45:33.046Z,807.00
2018-12-26T02:46:33.798Z,807.00
2018-12-26T02:47:34.047Z,808.00
2018-12-26T02:48:34.577Z,807.00
2018-12-26T02:49:34.879Z,810.00
2018-12-26T02:50:35.311Z,811.00
2018-12-26T02:51:34.597Z,810.00
2018-12-26T02:52:35.597Z,810.00
2018-12-26T02:53:35.936Z,812.00
2018-12-26T02:54:36.279Z,811.00
2018-12-26T02:55:36.941Z,810.00
2018-12-26T02:56:46.157Z,811.00
2018-12-26T02:57:36.511Z,811.00
2018-12-26T02:58:37.810Z,810.00
2018-12-26T02:59:38.233Z,808.00
2018-12-26T03:00:38.541Z,808.00
2018-12-26T03:01:38.862Z,808.00
2018-12-26T03:02:39.321Z,808.00
2018-12-26T03:03:39.599Z,807.00
2018-12-26T03:04:40.002Z,807.00
2018-12-26T03:05:40.355Z,807.00
2018-12-26T03:05:48.435Z,808.00
2018-12-26T03:06:49.615Z,809.00
2018-12-26T03:07:49.865Z,812.00
2018-12-26T03:08:50.381Z,812.00
2018-12-26T03:09:50.656Z,813.00
2018-12-26T03:10:51.015Z,813.00
2018-12-26T03:11:50.146Z,811.00
2018-12-26T03:12:51.421Z,810.00
2018-12-26T03:13:51.785Z,808.00
2018-12-26T03:14:52.211Z,808.00
2018-12-26T03:15:52.507Z,807.00
2018-12-26T03:16:52.881Z,807.00
2018-12-26T03:17:53.253Z,807.00
2018-12-26T03:18:53.543Z,807.00
2018-12-26T03:19:53.879Z,810.00
2018-12-26T03:20:54.214Z,811.00
2018-12-26T03:21:54.853Z,810.00
2018-12-26T03:22:55.249Z,809.00
2018-12-26T03:23:55.884Z,807.00
2018-12-26T03:24:56.148Z,807.00
2018-12-26T03:25:56.479Z,808.00
2018-12-26T03:26:56.886Z,807.00
2018-12-26T03:27:57.160Z,811.00
2018-12-26T03:28:57.624Z,811.00
2018-12-26T03:29:57.992Z,811.00
2018-12-26T03:30:58.276Z,809.00
2018-12-26T03:31:58.813Z,807.00
2018-12-26T03:32:59.310Z,807.00
2018-12-26T03:33:59.598Z,806.00
2018-12-26T03:35:00.036Z,806.00
2018-12-26T03:36:00.360Z,806.00
2018-12-26T03:37:00.925Z,806.00
2018-12-26T03:38:01.220Z,806.00
2018-12-26T03:39:01.784Z,808.00
2018-12-26T03:40:02.201Z,808.00
2018-12-26T03:41:02.512Z,808.00
2018-12-26T03:42:02.799Z,808.00
2018-12-26T03:43:03.105Z,808.00
2018-12-26T03:44:03.722Z,807.00
2018-12-26T03:45:04.025Z,807.00
2018-12-26T03:46:04.674Z,810.00
2018-12-26T03:47:05.312Z,808.00
2018-12-26T03:48:05.599Z,807.00
2018-12-26T03:49:06.260Z,807.00
2018-12-26T03:50:06.732Z,806.00
2018-12-26T03:51:07.167Z,806.00
2018-12-26T03:51:15.502Z,806.00
2018-12-26T03:52:16.868Z,807.00
2018-12-26T03:53:17.126Z,807.00
2018-12-26T03:54:17.439Z,806.00
2018-12-26T03:55:16.815Z,807.00
2018-12-26T03:56:18.169Z,807.00
2018-12-26T03:57:18.957Z,807.00
2018-12-26T03:58:19.315Z,807.00
2018-12-26T03:59:19.784Z,807.00
2018-12-26T04:00:20.068Z,806.00
2018-12-26T04:01:20.411Z,807.00
2018-12-26T04:02:20.692Z,808.00
2018-12-26T04:03:20.974Z,808.00
2018-12-26T04:04:21.335Z,808.00
2018-12-26T04:05:21.796Z,809.00
2018-12-26T04:06:22.211Z,808.00
2018-12-26T04:07:22.538Z,808.00
2018-12-26T04:08:22.846Z,809.00
2018-12-26T04:09:23.266Z,808.00
2018-12-26T04:10:22.671Z,807.00
2018-12-26T04:11:23.020Z,807.00
2018-12-26T04:12:24.384Z,807.00
2018-12-26T04:13:24.982Z,807.00
2018-12-26T04:14:25.367Z,806.00
2018-12-26T04:15:25.872Z,808.00
2018-12-26T04:16:26.158Z,807.00
2018-12-26T04:17:26.434Z,807.00
2018-12-26T04:18:26.763Z,807.00
2018-12-26T04:19:27.156Z,807.00
2018-12-26T04:20:27.561Z,806.00
2018-12-26T04:21:27.900Z,807.00
2018-12-26T04:22:28.216Z,807.00
2018-12-26T04:23:28.546Z,807.00
2018-12-26T04:24:28.907Z,807.00
2018-12-26T04:25:29.586Z,807.00
2018-12-26T04:26:30.141Z,806.00
2018-12-26T04:27:30.835Z,806.00
2018-12-26T04:28:31.134Z,806.00
2018-12-26T04:29:31.651Z,805.00
2018-12-26T04:30:32.032Z,806.00
2018-12-26T04:31:32.432Z,806.00
2018-12-26T04:32:33.424Z,806.00
2018-12-26T04:33:33.778Z,808.00
2018-12-26T04:34:34.547Z,807.00
2018-12-26T04:35:34.927Z,807.00
2018-12-26T04:35:43.890Z,807.00
2018-12-26T04:36:44.561Z,807.00
2018-12-26T04:37:44.079Z,807.00
2018-12-26T04:38:45.407Z,807.00
2018-12-26T04:39:45.760Z,807.00
2018-12-26T04:40:46.074Z,807.00
2018-12-26T04:41:46.408Z,808.00
2018-12-26T04:42:46.704Z,807.00
2018-12-26T04:43:47.057Z,807.00
2018-12-26T04:44:47.338Z,806.00
2018-12-26T04:45:47.766Z,807.00
2018-12-26T04:46:48.248Z,807.00
2018-12-26T04:47:48.664Z,807.00
2018-12-26T04:48:49.128Z,806.00
2018-12-26T04:49:49.528Z,806.00
2018-12-26T04:50:49.862Z,806.00
2018-12-26T04:51:50.187Z,807.00
2018-12-26T04:52:50.623Z,806.00
2018-12-26T04:53:50.961Z,807.00
2018-12-26T04:54:51.342Z,806.00
2018-12-26T04:55:50.538Z,806.00
2018-12-26T04:56:51.873Z,806.00
2018-12-26T04:57:52.313Z,805.00
2018-12-26T04:58:52.651Z,805.00
2018-12-26T04:59:53.021Z,805.00
2018-12-26T05:00:52.319Z,805.00
2018-12-26T05:01:53.669Z,806.00
2018-12-26T05:02:54.134Z,806.00
2018-12-26T05:03:54.437Z,806.00
2018-12-26T05:04:54.730Z,806.00
2018-12-26T05:05:55.482Z,806.00
2018-12-26T05:06:55.852Z,806.00
2018-12-26T05:07:56.182Z,806.00
2018-12-26T05:08:56.671Z,806.00
2018-12-26T05:09:56.989Z,806.00
2018-12-26T05:10:57.286Z,806.00
2018-12-26T05:11:57.552Z,806.00
2018-12-26T05:12:57.857Z,806.00
2018-12-26T05:13:58.197Z,805.00
2018-12-26T05:14:58.209Z,806.00
2018-12-26T05:15:58.526Z,806.00
2018-12-26T05:16:58.897Z,806.00
2018-12-26T05:17:59.253Z,806.00
2018-12-26T05:18:59.570Z,806.00
2018-12-26T05:20:00.189Z,806.00
2018-12-26T05:21:00.580Z,805.00
2018-12-26T05:22:01.007Z,806.00
2018-12-26T05:23:01.967Z,807.00
2018-12-26T05:23:10.840Z,807.00
2018-12-26T05:24:11.160Z,806.00
2018-12-26T05:25:12.098Z,806.00
2018-12-26T05:26:12.636Z,806.00
2018-12-26T05:27:12.961Z,806.00
2018-12-26T05:28:13.509Z,806.00
2018-12-26T05:29:13.757Z,805.00
2018-12-26T05:30:14.125Z,805.00
2018-12-26T05:31:14.739Z,805.00
2018-12-26T05:32:15.142Z,805.00
2018-12-26T05:33:15.515Z,805.00
2018-12-26T05:34:15.744Z,805.00
2018-12-26T05:35:15.995Z,804.00
2018-12-26T05:36:16.687Z,804.00
2018-12-26T05:37:17.020Z,805.00
2018-12-26T05:38:17.535Z,804.00
2018-12-26T05:39:18.592Z,804.00
2018-12-26T05:40:16.715Z,804.00
2018-12-26T05:41:18.053Z,804.00
2018-12-26T05:42:18.306Z,805.00
2018-12-26T05:43:18.600Z,805.00
2018-12-26T05:44:19.162Z,806.00
2018-12-26T05:45:20.434Z,805.00
2018-12-26T05:46:19.802Z,804.00
2018-12-26T05:47:20.078Z,804.00
2018-12-26T05:48:20.620Z,805.00
2018-12-26T05:49:19.994Z,805.00
2018-12-26T05:50:21.292Z,805.00
2018-12-26T05:51:21.691Z,804.00
2018-12-26T05:52:21.954Z,805.00
2018-12-26T05:53:22.394Z,805.00
2018-12-26T05:54:22.776Z,806.00
2018-12-26T05:55:23.418Z,806.00
2018-12-26T05:56:23.759Z,805.00
2018-12-26T05:57:24.140Z,806.00
2018-12-26T05:58:23.374Z,806.00
2018-12-26T05:59:24.732Z,806.00
2018-12-26T06:00:25.055Z,806.00
2018-12-26T06:01:25.421Z,807.00
2018-12-26T06:02:24.721Z,806.00
2018-12-26T06:03:26.000Z,806.00
2018-12-26T06:04:26.401Z,806.00
2018-12-26T06:05:26.694Z,806.00
2018-12-26T06:06:27.088Z,806.00
2018-12-26T06:07:27.438Z,806.00
2018-12-26T06:08:27.798Z,805.00
2018-12-26T06:09:28.090Z,805.00
2018-12-26T06:10:28.503Z,806.00
2018-12-26T06:10:36.892Z,806.00
2018-12-26T06:11:37.551Z,805.00
2018-12-26T06:12:38.208Z,805.00
2018-12-26T06:13:38.550Z,806.00
2018-12-26T06:14:38.863Z,805.00
2018-12-26T06:15:39.203Z,806.00
2018-12-26T06:16:39.951Z,806.00
2018-12-26T06:17:40.280Z,807.00
2018-12-26T06:18:40.692Z,807.00
2018-12-26T06:19:41.229Z,807.00
2018-12-26T06:20:41.628Z,806.00
2018-12-26T06:21:42.141Z,806.00
2018-12-26T06:22:42.475Z,806.00
2018-12-26T06:23:42.927Z,806.00
2018-12-26T06:24:43.221Z,805.00
2018-12-26T06:25:43.747Z,805.00
2018-12-26T06:26:43.144Z,805.00
2018-12-26T06:27:51.391Z,806.00
2018-12-26T06:28:43.825Z,805.00
2018-12-26T06:29:45.102Z,805.00
2018-12-26T06:30:45.379Z,807.00
2018-12-26T06:31:45.737Z,806.00
2018-12-26T06:32:46.018Z,806.00
2018-12-26T06:33:46.457Z,806.00
2018-12-26T06:34:46.815Z,806.00
2018-12-26T06:35:47.063Z,806.00
2018-12-26T06:36:47.407Z,806.00
2018-12-26T06:37:47.742Z,805.00
2018-12-26T06:38:48.116Z,805.00
2018-12-26T06:39:48.432Z,805.00
2018-12-26T06:40:48.776Z,805.00
2018-12-26T06:41:49.090Z,805.00
2018-12-26T06:42:49.410Z,806.00
2018-12-26T06:43:49.707Z,806.00
2018-12-26T06:44:50.062Z,806.00
2018-12-26T06:45:50.353Z,806.00
2018-12-26T06:46:50.635Z,808.00
2018-12-26T06:47:50.969Z,809.00
2018-12-26T06:48:51.287Z,810.00
2018-12-26T06:49:51.630Z,810.00
2018-12-26T06:50:51.957Z,808.00
2018-12-26T06:51:52.414Z,806.00
2018-12-26T06:52:52.776Z,807.00
2018-12-26T06:53:53.094Z,809.00
2018-12-26T06:54:53.642Z,809.00
2018-12-26T06:55:54.033Z,810.00
2018-12-26T06:56:02.101Z,810.00
2018-12-26T06:57:03.408Z,814.00
2018-12-26T06:58:03.755Z,816.00
2018-12-26T06:59:04.219Z,820.00
2018-12-26T07:00:04.721Z,818.00
2018-12-26T07:01:05.213Z,816.00
2018-12-26T07:02:05.931Z,816.00
2018-12-26T07:03:06.271Z,818.00
2018-12-26T07:04:06.680Z,814.00
2018-12-26T07:05:06.928Z,812.00
2018-12-26T07:06:07.278Z,811.00
2018-12-26T07:07:07.740Z,811.00
2018-12-26T07:08:08.299Z,814.00
2018-12-26T07:09:08.611Z,814.00
2018-12-26T07:10:09.363Z,814.00
2018-12-26T07:11:09.643Z,812.00
2018-12-26T07:12:09.894Z,813.00
2018-12-26T07:13:10.263Z,811.00
2018-12-26T07:14:10.895Z,810.00
2018-12-26T07:15:11.116Z,812.00
2018-12-26T07:16:11.530Z,811.00
2018-12-26T07:17:12.018Z,814.00
2018-12-26T07:18:12.604Z,813.00
2018-12-26T07:19:12.896Z,812.00
2018-12-26T07:20:13.306Z,811.00
2018-12-26T07:21:13.600Z,810.00
2018-12-26T07:22:14.065Z,808.00
2018-12-26T07:23:14.392Z,808.00
2018-12-26T07:24:14.662Z,807.00
2018-12-26T07:25:15.054Z,807.00
2018-12-26T07:26:15.351Z,807.00
2018-12-26T07:27:15.610Z,807.00
2018-12-26T07:28:15.908Z,807.00
2018-12-26T07:29:16.277Z,807.00
2018-12-26T07:30:15.591Z,806.00
2018-12-26T07:31:17.048Z,806.00
2018-12-26T07:32:17.287Z,806.00
2018-12-26T07:33:17.583Z,808.00
2018-12-26T07:34:17.994Z,807.00
2018-12-26T07:35:18.252Z,808.00
2018-12-26T07:36:18.580Z,808.00
2018-12-26T07:37:19.054Z,807.00
2018-12-26T07:38:19.396Z,807.00
2018-12-26T07:39:19.601Z,808.00
2018-12-26T07:40:19.962Z,808.00
2018-12-26T07:41:20.685Z,811.00
2018-12-26T07:41:28.837Z,811.00
2018-12-26T07:42:30.108Z,811.00
2018-12-26T07:43:30.414Z,809.00
2018-12-26T07:44:30.663Z,808.00
2018-12-26T07:45:30.908Z,810.00
2018-12-26T07:46:31.276Z,809.00
2018-12-26T07:47:31.559Z,808.00
2018-12-26T07:48:32.060Z,810.00
2018-12-26T07:49:32.502Z,810.00
2018-12-26T07:50:32.834Z,808.00
2018-12-26T07:51:32.198Z,808.00
2018-12-26T07:52:33.752Z,807.00
2018-12-26T07:53:34.099Z,807.00
2018-12-26T07:54:34.469Z,807.00
2018-12-26T07:55:35.022Z,807.00
2018-12-26T07:56:35.402Z,807.00
2018-12-26T07:57:35.763Z,807.00
2018-12-26T07:58:35.350Z,807.00
2018-12-26T07:59:37.687Z,806.00
2018-12-26T08:00:36.008Z,807.00
2018-12-26T08:01:37.791Z,807.00
2018-12-26T08:02:38.155Z,808.00
2018-12-26T08:03:50.768Z,807.00
2018-12-26T08:04:37.815Z,807.00
2018-12-26T08:05:39.293Z,807.00
2018-12-26T08:06:39.686Z,807.00
2018-12-26T08:07:40.047Z,807.00
2018-12-26T08:08:40.936Z,806.00
2018-12-26T08:09:41.492Z,807.00
2018-12-26T08:10:41.849Z,807.00
2018-12-26T08:11:42.209Z,807.00
2018-12-26T08:12:42.560Z,807.00
2018-12-26T08:13:43.286Z,807.00
2018-12-26T08:14:43.788Z,806.00
2018-12-26T08:15:44.405Z,806.00
2018-12-26T08:16:44.716Z,808.00
2018-12-26T08:17:45.214Z,807.00
2018-12-26T08:18:45.560Z,807.00
2018-12-26T08:19:46.115Z,807.00
2018-12-26T08:20:46.529Z,807.00
2018-12-26T08:21:46.938Z,807.00
2018-12-26T08:22:47.185Z,807.00
2018-12-26T08:23:47.480Z,807.00
2018-12-26T08:24:47.795Z,807.00
2018-12-26T08:25:48.197Z,806.00
2018-12-26T08:26:48.550Z,806.00
2018-12-26T08:27:48.829Z,807.00
2018-12-26T08:28:49.109Z,806.00
2018-12-26T08:28:57.445Z,806.00
2018-12-26T08:29:58.833Z,806.00
2018-12-26T08:30:59.172Z,806.00
2018-12-26T08:31:59.609Z,807.00
2018-12-26T08:32:59.951Z,806.00
2018-12-26T08:34:00.339Z,806.00
2018-12-26T08:35:00.387Z,807.00
2018-12-26T08:36:00.769Z,807.00
2018-12-26T08:37:00.121Z,807.00
2018-12-26T08:38:01.641Z,806.00
2018-12-26T08:39:02.115Z,807.00
2018-12-26T08:40:02.571Z,807.00
2018-12-26T08:41:03.404Z,807.00
2018-12-26T08:42:03.701Z,807.00
2018-12-26T08:43:04.063Z,807.00
2018-12-26T08:44:04.439Z,808.00
2018-12-26T08:45:04.788Z,810.00
2018-12-26T08:46:05.255Z,811.00
2018-12-26T08:47:05.642Z,811.00
2018-12-26T08:48:06.048Z,811.00
2018-12-26T08:49:06.723Z,809.00
2018-12-26T08:50:07.047Z,808.00
2018-12-26T08:51:07.487Z,808.00
2018-12-26T08:52:08.456Z,808.00
2018-12-26T08:53:08.764Z,808.00
2018-12-26T08:54:09.485Z,810.00
2018-12-26T08:55:10.041Z,810.00
2018-12-26T08:56:10.519Z,809.00
2018-12-26T08:57:11.892Z,808.00
2018-12-26T08:58:11.252Z,808.00
2018-12-26T08:59:11.381Z,810.00
2018-12-26T09:00:11.848Z,808.00
2018-12-26T09:01:12.130Z,807.00
2018-12-26T09:02:12.943Z,808.00
2018-12-26T09:03:13.588Z,809.00
2018-12-26T09:04:13.996Z,808.00
2018-12-26T09:05:14.339Z,808.00
2018-12-26T09:06:14.950Z,807.00
2018-12-26T09:07:15.347Z,808.00
2018-12-26T09:08:16.210Z,808.00
2018-12-26T09:09:16.685Z,808.00
2018-12-26T09:10:17.273Z,811.00
2018-12-26T09:11:17.899Z,810.00
2018-12-26T09:11:27.848Z,809.00
2018-12-26T09:12:29.331Z,807.00
2018-12-26T09:13:29.630Z,807.00
2018-12-26T09:14:29.985Z,807.00
2018-12-26T09:15:30.287Z,809.00
2018-12-26T09:16:30.816Z,808.00
2018-12-26T09:17:31.574Z,807.00
2018-12-26T09:18:31.284Z,807.00
2018-12-26T09:19:31.818Z,808.00
2018-12-26T09:20:33.161Z,806.00
2018-12-26T09:21:34.177Z,807.00
2018-12-26T09:22:33.581Z,806.00
2018-12-26T09:23:33.835Z,806.00
2018-12-26T09:24:34.384Z,808.00
2018-12-26T09:25:34.696Z,808.00
2018-12-26T09:26:35.153Z,808.00
2018-12-26T09:27:35.911Z,807.00
2018-12-26T09:28:43.784Z,807.00
2018-12-26T09:29:36.087Z,806.00
2018-12-26T09:30:37.482Z,806.00
2018-12-26T09:31:37.142Z,806.00
2018-12-26T09:32:38.923Z,806.00
2018-12-26T09:33:39.300Z,806.00
2018-12-26T09:34:39.691Z,805.00
2018-12-26T09:35:40.256Z,805.00
2018-12-26T09:36:40.611Z,806.00
2018-12-26T09:37:40.922Z,806.00
2018-12-26T09:38:41.293Z,806.00
2018-12-26T09:39:41.659Z,806.00
2018-12-26T09:40:41.937Z,805.00
2018-12-26T09:41:42.247Z,805.00
2018-12-26T09:42:42.658Z,805.00
2018-12-26T09:43:42.514Z,805.00
2018-12-26T09:44:43.807Z,806.00
2018-12-26T09:45:44.088Z,807.00
2018-12-26T09:46:44.549Z,807.00
2018-12-26T09:47:45.007Z,808.00
2018-12-26T09:48:45.282Z,807.00
2018-12-26T09:49:45.703Z,806.00
2018-12-26T09:50:46.014Z,805.00
2018-12-26T09:51:46.896Z,805.00
2018-12-26T09:52:47.245Z,806.00
2018-12-26T09:53:47.574Z,806.00
2018-12-26T09:54:49.281Z,807.00
2018-12-26T09:55:47.149Z,806.00
2018-12-26T09:56:48.630Z,807.00
2018-12-26T09:57:49.122Z,806.00
2018-12-26T09:58:52.596Z,807.00
2018-12-26T09:59:48.947Z,808.00
2018-12-26T10:00:50.235Z,807.00
2018-12-26T10:01:50.615Z,806.00
2018-12-26T10:01:58.937Z,806.00
2018-12-26T10:03:00.203Z,806.00
2018-12-26T10:04:00.562Z,807.00
2018-12-26T10:05:00.876Z,807.00
2018-12-26T10:06:01.215Z,806.00
2018-12-26T10:07:01.527Z,805.00
2018-12-26T10:08:01.765Z,805.00
2018-12-26T10:09:02.162Z,807.00
2018-12-26T10:10:02.570Z,806.00
2018-12-26T10:11:02.905Z,805.00
2018-12-26T10:12:03.212Z,805.00
2018-12-26T10:13:03.824Z,802.00
2018-12-26T10:14:04.159Z,802.00
2018-12-26T10:15:04.777Z,802.00
2018-12-26T10:16:05.096Z,802.00
2018-12-26T10:17:05.558Z,802.00
2018-12-26T10:18:08.744Z,802.00
2018-12-26T10:19:05.472Z,802.00
2018-12-26T10:20:06.859Z,802.00
2018-12-26T10:21:07.630Z,802.00
2018-12-26T10:22:07.945Z,805.00
2018-12-26T10:23:08.431Z,805.00
2018-12-26T10:24:08.771Z,804.00
2018-12-26T10:25:09.266Z,805.00
2018-12-26T10:26:09.658Z,802.00
2018-12-26T10:27:10.169Z,802.00
2018-12-26T10:28:10.602Z,802.00
2018-12-26T10:29:10.909Z,802.00
2018-12-26T10:30:11.328Z,802.00
2018-12-26T10:31:11.577Z,801.00
2018-12-26T10:32:11.892Z,801.00
2018-12-26T10:33:12.242Z,801.00
2018-12-26T10:34:13.062Z,801.00
2018-12-26T10:35:13.465Z,801.00
2018-12-26T10:36:13.891Z,801.00
2018-12-26T10:37:14.296Z,801.00
2018-12-26T10:38:14.692Z,801.00
2018-12-26T10:39:15.073Z,801.00
2018-12-26T10:40:14.393Z,801.00
2018-12-26T10:41:15.831Z,801.00
2018-12-26T10:42:16.135Z,801.00
2018-12-26T10:43:16.502Z,800.00
2018-12-26T10:44:16.859Z,800.00
2018-12-26T10:45:17.203Z,801.00
2018-12-26T10:46:17.567Z,802.00
2018-12-26T10:47:17.847Z,801.00
2018-12-26T10:48:18.321Z,800.00
2018-12-26T10:48:28.404Z,800.00
2018-12-26T10:49:29.682Z,800.00
2018-12-26T10:50:30.019Z,801.00
2018-12-26T10:51:30.339Z,801.00
2018-12-26T10:52:31.128Z,800.00
2018-12-26T10:53:31.507Z,798.00
2018-12-26T10:54:31.804Z,800.00
2018-12-26T10:55:32.013Z,798.00
2018-12-26T10:56:32.426Z,798.00
2018-12-26T10:57:32.654Z,798.00
2018-12-26T10:58:32.945Z,798.00
2018-12-26T10:59:33.210Z,798.00
2018-12-26T11:00:33.623Z,799.00
2018-12-26T11:01:33.898Z,798.00
2018-12-26T11:02:34.294Z,798.00
2018-12-26T11:03:34.953Z,798.00
2018-12-26T11:04:34.972Z,798.00
2018-12-26T11:05:35.418Z,798.00
2018-12-26T11:06:35.739Z,798.00
2018-12-26T11:07:36.100Z,798.00
2018-12-26T11:08:36.583Z,798.00
2018-12-26T11:09:36.889Z,798.00
2018-12-26T11:10:37.275Z,798.00
2018-12-26T11:11:37.708Z,798.00
2018-12-26T11:12:38.043Z,798.00
2018-12-26T11:13:38.344Z,798.00
2018-12-26T11:14:38.734Z,798.00
2018-12-26T11:15:39.084Z,798.00
2018-12-26T11:16:39.407Z,798.00
2018-12-26T11:17:38.621Z,798.00
2018-12-26T11:18:39.987Z,798.00
2018-12-26T11:19:40.316Z,798.00
2018-12-26T11:20:40.667Z,798.00
2018-12-26T11:21:41.025Z,798.00
2018-12-26T11:22:41.312Z,798.00
2018-12-26T11:23:41.685Z,797.00
2018-12-26T11:24:42.004Z,797.00
2018-12-26T11:25:42.463Z,797.00
2018-12-26T11:26:42.833Z,797.00
2018-12-26T11:27:43.272Z,797.00
2018-12-26T11:28:43.830Z,797.00
2018-12-26T11:29:44.378Z,798.00
2018-12-26T11:30:44.787Z,799.00
2018-12-26T11:31:44.058Z,798.00
2018-12-26T11:32:45.311Z,798.00
2018-12-26T11:33:45.654Z,797.00
2018-12-26T11:34:46.156Z,798.00
2018-12-26T11:34:54.599Z,798.00
2018-12-26T11:35:55.175Z,798.00
2018-12-26T11:36:55.574Z,798.00
2018-12-26T11:37:55.823Z,798.00
2018-12-26T11:38:56.222Z,797.00
2018-12-26T11:39:56.545Z,798.00
2018-12-26T11:40:57.128Z,797.00
2018-12-26T11:41:57.529Z,797.00
2018-12-26T11:42:58.094Z,797.00
2018-12-26T11:43:58.496Z,797.00
2018-12-26T11:44:58.911Z,797.00
2018-12-26T11:45:58.149Z,797.00
2018-12-26T11:46:59.435Z,797.00
2018-12-26T11:48:00.175Z,797.00
2018-12-26T11:49:00.880Z,797.00
2018-12-26T11:50:01.237Z,797.00
2018-12-26T11:51:01.853Z,797.00
2018-12-26T11:52:02.158Z,797.00
2018-12-26T11:53:02.461Z,797.00
2018-12-26T11:54:03.186Z,797.00
2018-12-26T11:55:03.515Z,797.00
2018-12-26T11:56:03.919Z,797.00
2018-12-26T11:57:04.431Z,797.00
2018-12-26T11:58:04.784Z,797.00
2018-12-26T11:59:05.742Z,797.00
2018-12-26T12:00:06.058Z,797.00
2018-12-26T12:01:06.331Z,797.00
2018-12-26T12:02:07.015Z,797.00
2018-12-26T12:03:07.296Z,796.00
2018-12-26T12:04:07.678Z,796.00
2018-12-26T12:05:07.999Z,797.00
2018-12-26T12:06:08.429Z,797.00
2018-12-26T12:07:08.776Z,797.00
2018-12-26T12:08:09.134Z,797.00
2018-12-26T12:09:09.438Z,797.00
2018-12-26T12:10:10.018Z,797.00
2018-12-26T12:11:10.325Z,797.00
2018-12-26T12:12:10.720Z,797.00
2018-12-26T12:13:11.459Z,796.00
2018-12-26T12:14:11.695Z,796.00
2018-12-26T12:15:12.197Z,797.00
2018-12-26T12:16:12.795Z,796.00
2018-12-26T12:17:13.211Z,797.00
2018-12-26T12:18:13.542Z,796.00
2018-12-26T12:19:13.980Z,796.00
2018-12-26T12:20:14.294Z,796.00
2018-12-26T12:21:14.647Z,796.00